CST,Max TemperatureF,Mean TemperatureF,Min TemperatureF,Max Dew PointF,MeanDew PointF,Min DewpointF,Max Humidity, Mean Humidity, Min Humidity, Max Sea Level PressureIn, Mean Sea Level PressureIn, Min Sea Level PressureIn, Max VisibilityMiles, Mean VisibilityMiles, Min VisibilityMiles, Max Wind SpeedMPH, Mean Wind SpeedMPH, Max Gust SpeedMPH,PrecipitationIn, CloudCover, Events, WindDirDegrees
2013-1-1,18,9,0,6,1,-5,78,71,53,30.33,30.25,30.18,10,10,10,8,5,,0.00,0,,317
2013-1-2,32,20,9,27,16,4,90,76,60,30.18,30.10,30.04,10,9,5,14,6,18,0.00,2,Snow,230
2013-1-3,31,22,12,27,15,8,88,76,64,30.38,30.30,30.16,10,10,10,18,10,22,0.00,3,Snow,283
2013-1-4,39,26,12,23,19,9,86,69,50,30.32,30.23,30.19,10,10,10,14,8,23,0.00,0,,228
2013-1-5,40,32,25,32,26,20,87,77,65,30.19,30.07,29.96,10,10,5,21,9,28,0.00,3,,223
2013-1-6,30,23,16,21,15,9,81,71,56,30.30,30.24,30.08,10,10,7,22,12,31,0.00,2,,271
2013-1-7,48,36,24,26,23,18,78,62,38,30.23,30.10,30.01,10,10,10,17,10,26,0.00,0,,192
2013-1-8,49,40,31,32,29,25,80,69,50,30.09,29.99,29.89,10,10,10,18,8,25,0.00,0,,187
2013-1-9,46,38,31,33,30,27,86,75,56,30.44,30.34,30.09,10,10,10,14,7,18,0.00,0,,260
2013-1-10,43,37,31,38,31,26,99,84,50,30.41,30.08,29.71,10,6,0,15,8,21,0.02,4,Fog-Rain,118
2013-1-11,55,46,38,49,44,38,99,86,64,29.74,29.61,29.51,10,6,0,22,8,30,0.00,4,Fog,178
2013-1-12,55,37,17,42,18,9,83,67,57,30.09,29.96,29.58,10,10,7,29,16,37,0.00,2,,288
2013-1-13,21,16,10,9,6,3,75,67,56,30.33,30.18,30.04,10,10,10,17,12,22,0.00,3,Snow,294
2013-1-14,30,18,7,13,8,3,84,65,37,30.49,30.41,30.33,10,10,7,9,4,,0.00,0,,224
2013-1-15,35,25,15,16,11,9,81,60,36,30.40,30.29,30.11,10,10,5,10,5,,0.00,0,,195
2013-1-16,46,32,19,32,22,10,92,64,55,30.19,29.99,29.89,10,10,10,18,10,24,0.00,3,,248
2013-1-17,36,26,17,25,17,11,85,68,43,30.46,30.38,30.20,10,10,10,16,9,23,0.00,1,,317
2013-1-18,57,40,24,31,27,18,78,59,35,30.36,30.07,29.91,10,10,10,25,11,34,0.00,0,,206
2013-1-19,54,38,20,32,28,8,74,61,37,30.26,29.95,29.84,10,10,10,31,13,37,0.00,0,,265
2013-1-20,19,14,8,10,6,2,84,71,57,30.41,30.36,30.27,10,8,0,18,11,28,0.00,3,Snow,313
2013-1-21,9,4,0,2,-5,-12,74,64,53,30.43,30.37,30.33,10,10,5,22,13,29,0.00,0,,298
2013-1-22,16,8,1,5,-2,-7,72,61,47,30.45,30.38,30.31,10,10,10,8,4,,0.00,3,,268
2013-1-23,29,18,7,17,7,-4,79,62,50,30.52,30.28,30.19,10,10,10,23,10,33,0.00,1,,276
2013-1-24,22,13,4,7,-3,-8,63,50,37,30.62,30.46,30.23,10,10,10,15,9,20,0.00,1,,95
2013-1-25,38,26,13,22,13,3,78,58,47,30.31,30.15,30.09,10,10,10,22,10,30,0.00,2,,280
2013-1-26,34,21,8,16,8,2,79,56,35,30.38,30.28,30.19,10,10,10,13,7,20,0.00,0,,111
2013-1-27,41,35,29,41,30,16,99,86,55,30.18,29.94,29.75,10,4,1,15,10,20,0.03,7,Rain-Snow,137
2013-1-28,52,42,34,52,40,34,100,99,97,29.93,29.81,29.62,7,1,0,15,6,20,0.00,8,Fog-Rain,118
2013-1-29,61,47,33,58,41,32,98,93,76,29.66,29.58,29.53,10,6,2,16,11,23,0.01,6,Rain-Snow,316
2013-1-30,33,26,18,32,21,11,99,85,71,29.86,29.64,29.45,10,6,0,29,17,41,0.00,7,Snow,319
2013-1-31,17,9,0,11,-1,-8,79,69,62,30.37,30.10,29.86,10,8,2,25,15,34,0.00,3,Snow,296